sensor_id;sensor_type;location;lat;lon;timestamp;temperature;humidity
26342;DHT22;14054;50.108;8.640;2023-07-20T00:02:14;20.50;99.90
26342;DHT22;14054;50.108;8.640;2023-07-20T00:04:40;20.60;99.90
26342;DHT22;14054;50.108;8.640;2023-07-20T00:07:05;20.50;99.90
26342;DHT22;14054;50.108;8.640;2023-07-20T00:09:31;20.50;99.90
26342;DHT22;14054;50.108;8.640;2023-07-20T00:11:56;20.40;99.90
26342;DHT22;14054;50.108;8.640;2023-07-20T00:14:22;20.40;99.90
26342;DHT22;14054;50.108;8.640;2023-07-20T00:16:50;20.40;99.90
26342;DHT22;14054;50.108;8.640;2023-07-20T00:19:21;20.30;99.90
26342;DHT22;14054;50.108;8.640;2023-07-20T00:21:46;20.30;99.90
26342;DHT22;14054;50.108;8.640;2023-07-20T00:24:12;20.30;99.90
26342;DHT22;14054;50.108;8.640;2023-07-20T00:26:37;20.20;99.90
26342;DHT22;14054;50.108;8.640;2023-07-20T00:29:03;20.20;99.90
26342;DHT22;14054;50.108;8.640;2023-07-20T00:31:29;20.20;99.90
26342;DHT22;14054;50.108;8.640;2023-07-20T00:33:54;20.10;99.90
26342;DHT22;14054;50.108;8.640;2023-07-20T00:36:20;20.10;99.90
26342;DHT22;14054;50.108;8.640;2023-07-20T00:38:45;20.10;99.90
26342;DHT22;14054;50.108;8.640;2023-07-20T00:41:11;20.10;99.90
26342;DHT22;14054;50.108;8.640;2023-07-20T00:43:36;20.10;99.90
26342;DHT22;14054;50.108;8.640;2023-07-20T00:46:02;20.10;99.90
26342;DHT22;14054;50.108;8.640;2023-07-20T00:48:29;20.00;99.90
26342;DHT22;14054;50.108;8.640;2023-07-20T00:50:55;20.00;99.90
26342;DHT22;14054;50.108;8.640;2023-07-20T00:53:21;19.90;99.90
26342;DHT22;14054;50.108;8.640;2023-07-20T00:55:46;19.90;99.90
26342;DHT22;14054;50.108;8.640;2023-07-20T00:58:12;19.90;99.90
26342;DHT22;14054;50.108;8.640;2023-07-20T01:00:38;19.90;99.90
26342;DHT22;14054;50.108;8.640;2023-07-20T01:03:03;19.80;99.90
26342;DHT22;14054;50.108;8.640;2023-07-20T01:05:46;19.80;99.90
26342;DHT22;14054;50.108;8.640;2023-07-20T01:08:30;19.80;99.90
26342;DHT22;14054;50.108;8.640;2023-07-20T01:11:03;19.80;99.90
26342;DHT22;14054;50.108;8.640;2023-07-20T01:13:30;19.70;99.90
26342;DHT22;14054;50.108;8.640;2023-07-20T01:15:57;19.70;99.90
26342;DHT22;14054;50.108;8.640;2023-07-20T01:18:25;19.60;99.90
26342;DHT22;14054;50.108;8.640;2023-07-20T01:20:53;19.60;99.90
26342;DHT22;14054;50.108;8.640;2023-07-20T01:24:00;19.50;99.90
26342;DHT22;14054;50.108;8.640;2023-07-20T01:29:55;19.40;99.90
26342;DHT22;14054;50.108;8.640;2023-07-20T01:32:29;19.40;99.90
26342;DHT22;14054;50.108;8.640;2023-07-20T01:34:56;19.40;99.90
26342;DHT22;14054;50.108;8.640;2023-07-20T01:37:24;19.30;99.90
26342;DHT22;14054;50.108;8.640;2023-07-20T01:39:54;19.30;99.90
26342;DHT22;14054;50.108;8.640;2023-07-20T01:42:23;19.30;99.90
26342;DHT22;14054;50.108;8.640;2023-07-20T01:44:52;19.40;99.90
26342;DHT22;14054;50.108;8.640;2023-07-20T01:47:18;19.30;99.90
26342;DHT22;14054;50.108;8.640;2023-07-20T01:49:44;19.20;99.90
26342;DHT22;14054;50.108;8.640;2023-07-20T01:52:09;19.20;99.90
26342;DHT22;14054;50.108;8.640;2023-07-20T01:54:35;19.20;99.90
26342;DHT22;14054;50.108;8.640;2023-07-20T01:57:01;19.20;99.90
26342;DHT22;14054;50.108;8.640;2023-07-20T01:59:26;19.20;99.90
26342;DHT22;14054;50.108;8.640;2023-07-20T02:01:52;19.10;99.90
26342;DHT22;14054;50.108;8.640;2023-07-20T02:04:18;19.20;99.90
26342;DHT22;14054;50.108;8.640;2023-07-20T02:06:43;19.10;99.90
26342;DHT22;14054;50.108;8.640;2023-07-20T02:09:09;19.10;99.90
26342;DHT22;14054;50.108;8.640;2023-07-20T02:11:34;19.10;99.90
26342;DHT22;14054;50.108;8.640;2023-07-20T02:14:00;19.10;99.90
26342;DHT22;14054;50.108;8.640;2023-07-20T02:16:25;19.10;99.90
26342;DHT22;14054;50.108;8.640;2023-07-20T02:18:51;19.10;99.90
26342;DHT22;14054;50.108;8.640;2023-07-20T02:21:17;19.10;99.90
26342;DHT22;14054;50.108;8.640;2023-07-20T02:23:43;19.10;99.90
26342;DHT22;14054;50.108;8.640;2023-07-20T02:26:08;19.00;99.90
26342;DHT22;14054;50.108;8.640;2023-07-20T02:28:34;19.00;99.90
26342;DHT22;14054;50.108;8.640;2023-07-20T02:30:59;19.00;99.90
26342;DHT22;14054;50.108;8.640;2023-07-20T02:33:25;19.00;99.90
26342;DHT22;14054;50.108;8.640;2023-07-20T02:35:52;19.00;99.90
26342;DHT22;14054;50.108;8.640;2023-07-20T02:38:17;19.00;99.90
26342;DHT22;14054;50.108;8.640;2023-07-20T02:40:43;19.00;99.90
26342;DHT22;14054;50.108;8.640;2023-07-20T02:43:08;18.90;99.90
26342;DHT22;14054;50.108;8.640;2023-07-20T02:45:35;18.90;99.90
26342;DHT22;14054;50.108;8.640;2023-07-20T02:48:00;18.90;99.90
26342;DHT22;14054;50.108;8.640;2023-07-20T02:50:26;18.80;99.90
26342;DHT22;14054;50.108;8.640;2023-07-20T02:52:52;18.80;99.90
26342;DHT22;14054;50.108;8.640;2023-07-20T02:55:17;18.80;99.90
26342;DHT22;14054;50.108;8.640;2023-07-20T02:57:43;18.80;99.90
26342;DHT22;14054;50.108;8.640;2023-07-20T03:00:08;18.80;99.90
26342;DHT22;14054;50.108;8.640;2023-07-20T03:02:34;18.80;99.90
26342;DHT22;14054;50.108;8.640;2023-07-20T03:05:00;18.80;99.90
26342;DHT22;14054;50.108;8.640;2023-07-20T03:07:27;18.80;99.90
26342;DHT22;14054;50.108;8.640;2023-07-20T03:09:54;18.80;99.90
26342;DHT22;14054;50.108;8.640;2023-07-20T03:12:20;18.80;99.90
26342;DHT22;14054;50.108;8.640;2023-07-20T03:14:46;18.80;99.90
26342;DHT22;14054;50.108;8.640;2023-07-20T03:17:11;18.70;99.90
26342;DHT22;14054;50.108;8.640;2023-07-20T03:19:37;18.70;99.90
26342;DHT22;14054;50.108;8.640;2023-07-20T03:22:02;18.70;99.90
26342;DHT22;14054;50.108;8.640;2023-07-20T03:24:28;18.70;99.90
26342;DHT22;14054;50.108;8.640;2023-07-20T03:26:53;18.70;99.90
26342;DHT22;14054;50.108;8.640;2023-07-20T03:29:19;18.70;99.90
26342;DHT22;14054;50.108;8.640;2023-07-20T03:31:45;18.60;99.90
26342;DHT22;14054;50.108;8.640;2023-07-20T03:34:10;18.60;99.90
26342;DHT22;14054;50.108;8.640;2023-07-20T03:36:35;18.60;99.90
26342;DHT22;14054;50.108;8.640;2023-07-20T03:39:01;18.60;99.90
26342;DHT22;14054;50.108;8.640;2023-07-20T03:41:28;18.50;99.90
26342;DHT22;14054;50.108;8.640;2023-07-20T03:43:53;18.50;99.90
26342;DHT22;14054;50.108;8.640;2023-07-20T03:46:19;18.50;99.90
26342;DHT22;14054;50.108;8.640;2023-07-20T03:48:45;18.50;99.90
26342;DHT22;14054;50.108;8.640;2023-07-20T03:51:10;18.40;99.90
26342;DHT22;14054;50.108;8.640;2023-07-20T03:53:36;18.40;99.90
26342;DHT22;14054;50.108;8.640;2023-07-20T03:56:01;18.40;99.90
26342;DHT22;14054;50.108;8.640;2023-07-20T03:58:27;18.40;99.90
26342;DHT22;14054;50.108;8.640;2023-07-20T04:00:52;18.40;99.90
26342;DHT22;14054;50.108;8.640;2023-07-20T04:03:19;18.40;99.90
26342;DHT22;14054;50.108;8.640;2023-07-20T04:05:45;18.40;99.90
26342;DHT22;14054;50.108;8.640;2023-07-20T04:08:11;18.40;99.90
26342;DHT22;14054;50.108;8.640;2023-07-20T04:10:37;18.40;99.90
26342;DHT22;14054;50.108;8.640;2023-07-20T04:13:03;18.40;99.90
26342;DHT22;14054;50.108;8.640;2023-07-20T04:15:29;18.40;99.90
26342;DHT22;14054;50.108;8.640;2023-07-20T04:17:54;18.40;99.90
26342;DHT22;14054;50.108;8.640;2023-07-20T04:20:22;18.40;99.90
26342;DHT22;14054;50.108;8.640;2023-07-20T04:22:47;18.40;99.90
26342;DHT22;14054;50.108;8.640;2023-07-20T04:25:13;18.30;99.90
26342;DHT22;14054;50.108;8.640;2023-07-20T04:27:38;18.30;99.90
26342;DHT22;14054;50.108;8.640;2023-07-20T04:30:06;18.30;99.90
26342;DHT22;14054;50.108;8.640;2023-07-20T04:32:31;18.30;99.90
26342;DHT22;14054;50.108;8.640;2023-07-20T04:34:59;18.30;99.90
26342;DHT22;14054;50.108;8.640;2023-07-20T04:37:24;18.20;99.90
26342;DHT22;14054;50.108;8.640;2023-07-20T04:39:50;18.20;99.90
26342;DHT22;14054;50.108;8.640;2023-07-20T04:42:15;18.20;99.90
26342;DHT22;14054;50.108;8.640;2023-07-20T04:44:41;18.20;99.90
26342;DHT22;14054;50.108;8.640;2023-07-20T04:47:07;18.10;99.90
26342;DHT22;14054;50.108;8.640;2023-07-20T04:49:34;18.10;99.90
26342;DHT22;14054;50.108;8.640;2023-07-20T04:51:59;18.00;99.90
26342;DHT22;14054;50.108;8.640;2023-07-20T04:54:24;18.10;99.90
26342;DHT22;14054;50.108;8.640;2023-07-20T04:56:52;18.10;99.90
26342;DHT22;14054;50.108;8.640;2023-07-20T04:59:18;18.00;99.90
26342;DHT22;14054;50.108;8.640;2023-07-20T05:01:43;18.00;99.90
26342;DHT22;14054;50.108;8.640;2023-07-20T05:04:09;18.00;99.90
26342;DHT22;14054;50.108;8.640;2023-07-20T05:06:35;18.00;99.90
26342;DHT22;14054;50.108;8.640;2023-07-20T05:09:00;17.90;99.90
26342;DHT22;14054;50.108;8.640;2023-07-20T05:11:26;17.90;99.90
26342;DHT22;14054;50.108;8.640;2023-07-20T05:13:51;18.00;99.90
26342;DHT22;14054;50.108;8.640;2023-07-20T05:16:16;18.00;99.90
26342;DHT22;14054;50.108;8.640;2023-07-20T05:18:42;18.00;99.90
26342;DHT22;14054;50.108;8.640;2023-07-20T05:21:07;18.00;99.90
26342;DHT22;14054;50.108;8.640;2023-07-20T05:23:33;18.10;99.90
26342;DHT22;14054;50.108;8.640;2023-07-20T05:25:59;18.10;99.90
26342;DHT22;14054;50.108;8.640;2023-07-20T05:28:25;18.20;99.90
26342;DHT22;14054;50.108;8.640;2023-07-20T05:30:54;18.30;99.90
26342;DHT22;14054;50.108;8.640;2023-07-20T05:33:20;18.30;99.90
26342;DHT22;14054;50.108;8.640;2023-07-20T05:35:46;18.30;99.90
26342;DHT22;14054;50.108;8.640;2023-07-20T05:38:11;18.30;99.90
26342;DHT22;14054;50.108;8.640;2023-07-20T05:40:38;18.40;99.90
26342;DHT22;14054;50.108;8.640;2023-07-20T05:43:03;18.40;99.90
26342;DHT22;14054;50.108;8.640;2023-07-20T05:45:29;18.50;99.90
26342;DHT22;14054;50.108;8.640;2023-07-20T05:47:54;18.60;99.90
26342;DHT22;14054;50.108;8.640;2023-07-20T05:50:20;18.70;99.90
26342;DHT22;14054;50.108;8.640;2023-07-20T05:52:45;18.70;99.90
26342;DHT22;14054;50.108;8.640;2023-07-20T05:55:11;18.80;99.90
26342;DHT22;14054;50.108;8.640;2023-07-20T05:57:36;18.80;99.90
26342;DHT22;14054;50.108;8.640;2023-07-20T06:00:08;18.90;99.90
26342;DHT22;14054;50.108;8.640;2023-07-20T06:02:34;18.90;99.90
26342;DHT22;14054;50.108;8.640;2023-07-20T06:04:59;19.00;99.90
26342;DHT22;14054;50.108;8.640;2023-07-20T06:07:25;19.10;99.90
26342;DHT22;14054;50.108;8.640;2023-07-20T06:09:50;19.20;99.90
26342;DHT22;14054;50.108;8.640;2023-07-20T06:12:16;19.30;99.90
26342;DHT22;14054;50.108;8.640;2023-07-20T06:14:41;19.40;99.90
26342;DHT22;14054;50.108;8.640;2023-07-20T06:17:07;19.60;99.90
26342;DHT22;14054;50.108;8.640;2023-07-20T06:19:32;19.80;99.90
26342;DHT22;14054;50.108;8.640;2023-07-20T06:21:58;20.00;99.90
26342;DHT22;14054;50.108;8.640;2023-07-20T06:24:23;20.00;99.90
26342;DHT22;14054;50.108;8.640;2023-07-20T06:26:49;20.00;99.90
26342;DHT22;14054;50.108;8.640;2023-07-20T06:29:14;20.10;99.90
26342;DHT22;14054;50.108;8.640;2023-07-20T06:31:40;20.10;99.90
26342;DHT22;14054;50.108;8.640;2023-07-20T06:34:05;20.00;99.90
26342;DHT22;14054;50.108;8.640;2023-07-20T06:36:31;20.00;99.90
26342;DHT22;14054;50.108;8.640;2023-07-20T06:38:56;19.90;99.90
26342;DHT22;14054;50.108;8.640;2023-07-20T06:41:22;19.90;99.90
26342;DHT22;14054;50.108;8.640;2023-07-20T06:43:48;19.90;99.90
26342;DHT22;14054;50.108;8.640;2023-07-20T06:46:13;19.90;99.90
26342;DHT22;14054;50.108;8.640;2023-07-20T06:48:39;20.00;99.90
26342;DHT22;14054;50.108;8.640;2023-07-20T06:51:05;20.20;99.90
26342;DHT22;14054;50.108;8.640;2023-07-20T06:53:30;20.40;99.90
26342;DHT22;14054;50.108;8.640;2023-07-20T06:55:56;20.60;99.90
26342;DHT22;14054;50.108;8.640;2023-07-20T06:58:24;20.70;99.90
26342;DHT22;14054;50.108;8.640;2023-07-20T07:00:50;20.70;99.90
26342;DHT22;14054;50.108;8.640;2023-07-20T07:03:15;20.90;99.90
26342;DHT22;14054;50.108;8.640;2023-07-20T07:05:41;20.90;99.90
26342;DHT22;14054;50.108;8.640;2023-07-20T07:08:07;21.10;99.90
26342;DHT22;14054;50.108;8.640;2023-07-20T07:10:34;21.00;99.90
26342;DHT22;14054;50.108;8.640;2023-07-20T07:13:00;21.10;99.90
26342;DHT22;14054;50.108;8.640;2023-07-20T07:15:26;21.20;99.90
26342;DHT22;14054;50.108;8.640;2023-07-20T07:17:52;21.20;99.90
26342;DHT22;14054;50.108;8.640;2023-07-20T07:20:18;21.30;99.90
26342;DHT22;14054;50.108;8.640;2023-07-20T07:22:43;21.40;99.90
26342;DHT22;14054;50.108;8.640;2023-07-20T07:25:09;21.40;99.90
26342;DHT22;14054;50.108;8.640;2023-07-20T07:27:35;21.20;99.90
26342;DHT22;14054;50.108;8.640;2023-07-20T07:30:01;21.40;99.90
26342;DHT22;14054;50.108;8.640;2023-07-20T07:32:26;21.50;99.90
26342;DHT22;14054;50.108;8.640;2023-07-20T07:34:52;21.40;99.90
26342;DHT22;14054;50.108;8.640;2023-07-20T07:37:17;21.50;99.90
26342;DHT22;14054;50.108;8.640;2023-07-20T07:39:45;21.40;99.90
26342;DHT22;14054;50.108;8.640;2023-07-20T07:42:11;21.30;99.90
26342;DHT22;14054;50.108;8.640;2023-07-20T07:44:37;21.70;99.90
26342;DHT22;14054;50.108;8.640;2023-07-20T07:47:03;21.80;99.90
26342;DHT22;14054;50.108;8.640;2023-07-20T07:49:28;21.90;99.90
26342;DHT22;14054;50.108;8.640;2023-07-20T07:51:54;21.70;99.90
26342;DHT22;14054;50.108;8.640;2023-07-20T07:54:20;21.50;99.90
26342;DHT22;14054;50.108;8.640;2023-07-20T07:56:45;21.60;99.90
26342;DHT22;14054;50.108;8.640;2023-07-20T07:59:11;21.60;99.90
26342;DHT22;14054;50.108;8.640;2023-07-20T08:01:36;21.80;99.90
26342;DHT22;14054;50.108;8.640;2023-07-20T08:04:02;22.30;99.90
26342;DHT22;14054;50.108;8.640;2023-07-20T08:06:29;22.40;99.90
26342;DHT22;14054;50.108;8.640;2023-07-20T08:08:54;22.50;99.90
26342;DHT22;14054;50.108;8.640;2023-07-20T08:11:20;22.70;99.90
26342;DHT22;14054;50.108;8.640;2023-07-20T08:13:45;22.90;99.90
26342;DHT22;14054;50.108;8.640;2023-07-20T08:16:11;23.10;99.90
26342;DHT22;14054;50.108;8.640;2023-07-20T08:18:36;23.20;99.90
26342;DHT22;14054;50.108;8.640;2023-07-20T08:21:02;23.30;99.90
26342;DHT22;14054;50.108;8.640;2023-07-20T08:23:28;23.00;99.90
26342;DHT22;14054;50.108;8.640;2023-07-20T08:25:53;23.00;99.90
26342;DHT22;14054;50.108;8.640;2023-07-20T08:28:19;23.10;99.90
26342;DHT22;14054;50.108;8.640;2023-07-20T08:30:47;23.30;99.90
26342;DHT22;14054;50.108;8.640;2023-07-20T08:33:18;23.30;99.90
26342;DHT22;14054;50.108;8.640;2023-07-20T08:35:48;23.40;99.90
26342;DHT22;14054;50.108;8.640;2023-07-20T08:38:14;23.50;99.90
26342;DHT22;14054;50.108;8.640;2023-07-20T08:40:42;23.50;99.90
26342;DHT22;14054;50.108;8.640;2023-07-20T08:43:08;23.70;99.90
26342;DHT22;14054;50.108;8.640;2023-07-20T08:45:36;23.70;99.90
26342;DHT22;14054;50.108;8.640;2023-07-20T08:48:05;23.60;99.90
26342;DHT22;14054;50.108;8.640;2023-07-20T08:50:31;23.20;99.90
26342;DHT22;14054;50.108;8.640;2023-07-20T08:52:58;23.50;99.90
26342;DHT22;14054;50.108;8.640;2023-07-20T08:55:27;23.60;99.90
26342;DHT22;14054;50.108;8.640;2023-07-20T08:57:55;23.70;99.70
26342;DHT22;14054;50.108;8.640;2023-07-20T09:00:22;23.80;99.70
26342;DHT22;14054;50.108;8.640;2023-07-20T09:02:50;24.20;99.40
26342;DHT22;14054;50.108;8.640;2023-07-20T09:05:17;24.00;99.40
26342;DHT22;14054;50.108;8.640;2023-07-20T09:07:43;23.70;99.70
26342;DHT22;14054;50.108;8.640;2023-07-20T09:10:09;23.80;99.30
26342;DHT22;14054;50.108;8.640;2023-07-20T09:12:37;23.90;99.40
26342;DHT22;14054;50.108;8.640;2023-07-20T09:15:03;24.10;99.00
26342;DHT22;14054;50.108;8.640;2023-07-20T09:17:29;24.30;98.60
26342;DHT22;14054;50.108;8.640;2023-07-20T09:19:55;24.10;98.00
26342;DHT22;14054;50.108;8.640;2023-07-20T09:22:20;23.90;98.30
26342;DHT22;14054;50.108;8.640;2023-07-20T09:24:46;23.70;98.30
26342;DHT22;14054;50.108;8.640;2023-07-20T09:27:11;23.40;98.90
26342;DHT22;14054;50.108;8.640;2023-07-20T09:29:53;23.10;99.30
26342;DHT22;14054;50.108;8.640;2023-07-20T09:32:20;22.90;99.90
26342;DHT22;14054;50.108;8.640;2023-07-20T09:34:50;22.70;99.90
26342;DHT22;14054;50.108;8.640;2023-07-20T09:37:26;22.60;99.90
26342;DHT22;14054;50.108;8.640;2023-07-20T09:39:53;22.50;99.90
26342;DHT22;14054;50.108;8.640;2023-07-20T09:42:21;22.40;99.90
26342;DHT22;14054;50.108;8.640;2023-07-20T09:44:48;22.40;99.90
26342;DHT22;14054;50.108;8.640;2023-07-20T09:47:21;22.20;99.90
26342;DHT22;14054;50.108;8.640;2023-07-20T09:49:47;22.40;99.90
26342;DHT22;14054;50.108;8.640;2023-07-20T09:52:12;22.20;99.90
26342;DHT22;14054;50.108;8.640;2023-07-20T09:54:39;22.20;99.90
26342;DHT22;14054;50.108;8.640;2023-07-20T09:57:07;22.20;99.90
26342;DHT22;14054;50.108;8.640;2023-07-20T09:59:34;22.20;99.90
26342;DHT22;14054;50.108;8.640;2023-07-20T10:02:02;22.30;99.90
26342;DHT22;14054;50.108;8.640;2023-07-20T10:04:30;22.30;99.90
26342;DHT22;14054;50.108;8.640;2023-07-20T10:07:00;22.80;99.90
26342;DHT22;14054;50.108;8.640;2023-07-20T10:09:29;23.20;99.90
26342;DHT22;14054;50.108;8.640;2023-07-20T10:11:56;23.40;99.90
26342;DHT22;14054;50.108;8.640;2023-07-20T10:14:24;23.30;99.90
26342;DHT22;14054;50.108;8.640;2023-07-20T10:16:51;23.30;99.90
26342;DHT22;14054;50.108;8.640;2023-07-20T10:19:23;23.40;99.20
26342;DHT22;14054;50.108;8.640;2023-07-20T10:21:57;23.70;98.60
26342;DHT22;14054;50.108;8.640;2023-07-20T10:24:25;23.60;98.50
26342;DHT22;14054;50.108;8.640;2023-07-20T10:26:51;23.70;98.60
26342;DHT22;14054;50.108;8.640;2023-07-20T10:29:17;24.10;98.20
26342;DHT22;14054;50.108;8.640;2023-07-20T10:31:43;24.60;96.60
26342;DHT22;14054;50.108;8.640;2023-07-20T10:34:10;24.60;97.00
26342;DHT22;14054;50.108;8.640;2023-07-20T10:36:44;24.20;96.00
26342;DHT22;14054;50.108;8.640;2023-07-20T10:39:28;23.90;96.00
26342;DHT22;14054;50.108;8.640;2023-07-20T10:44:28;24.00;96.30
26342;DHT22;14054;50.108;8.640;2023-07-20T10:47:01;23.90;96.70
26342;DHT22;14054;50.108;8.640;2023-07-20T10:49:27;23.80;96.60
26342;DHT22;14054;50.108;8.640;2023-07-20T10:52:00;23.60;97.20
26342;DHT22;14054;50.108;8.640;2023-07-20T10:56:56;23.60;97.30
26342;DHT22;14054;50.108;8.640;2023-07-20T11:01:54;23.60;97.50
26342;DHT22;14054;50.108;8.640;2023-07-20T11:07:03;24.40;96.40
26342;DHT22;14054;50.108;8.640;2023-07-20T11:09:34;25.10;95.10
26342;DHT22;14054;50.108;8.640;2023-07-20T11:12:13;25.00;94.00
26342;DHT22;14054;50.108;8.640;2023-07-20T11:14:56;25.20;94.00
26342;DHT22;14054;50.108;8.640;2023-07-20T11:17:29;25.10;93.40
26342;DHT22;14054;50.108;8.640;2023-07-20T11:20:04;25.00;93.30
26342;DHT22;14054;50.108;8.640;2023-07-20T11:22:31;24.80;93.80
26342;DHT22;14054;50.108;8.640;2023-07-20T11:24:57;24.80;94.20
26342;DHT22;14054;50.108;8.640;2023-07-20T11:27:23;25.30;93.60
26342;DHT22;14054;50.108;8.640;2023-07-20T11:29:49;26.00;93.40
26342;DHT22;14054;50.108;8.640;2023-07-20T11:32:22;26.20;91.80
26342;DHT22;14054;50.108;8.640;2023-07-20T11:34:48;26.40;91.20
26342;DHT22;14054;50.108;8.640;2023-07-20T11:37:15;26.20;91.10
26342;DHT22;14054;50.108;8.640;2023-07-20T11:39:40;26.00;91.10
26342;DHT22;14054;50.108;8.640;2023-07-20T11:42:06;25.40;91.30
26342;DHT22;14054;50.108;8.640;2023-07-20T11:44:32;25.30;91.80
26342;DHT22;14054;50.108;8.640;2023-07-20T11:47:09;24.90;92.10
26342;DHT22;14054;50.108;8.640;2023-07-20T11:49:36;24.70;92.50
26342;DHT22;14054;50.108;8.640;2023-07-20T11:52:06;24.70;93.00
26342;DHT22;14054;50.108;8.640;2023-07-20T11:54:33;24.70;92.90
26342;DHT22;14054;50.108;8.640;2023-07-20T11:57:01;24.80;92.90
26342;DHT22;14054;50.108;8.640;2023-07-20T11:59:26;24.90;92.60
26342;DHT22;14054;50.108;8.640;2023-07-20T12:01:52;24.90;92.20
26342;DHT22;14054;50.108;8.640;2023-07-20T12:04:18;24.70;92.80
26342;DHT22;14054;50.108;8.640;2023-07-20T12:06:45;24.80;92.80
26342;DHT22;14054;50.108;8.640;2023-07-20T12:09:14;24.60;92.60
26342;DHT22;14054;50.108;8.640;2023-07-20T12:11:43;24.60;92.60
26342;DHT22;14054;50.108;8.640;2023-07-20T12:14:10;25.20;91.90
26342;DHT22;14054;50.108;8.640;2023-07-20T12:16:36;26.00;90.70
26342;DHT22;14054;50.108;8.640;2023-07-20T12:21:30;25.90;90.10
26342;DHT22;14054;50.108;8.640;2023-07-20T12:23:58;26.10;89.00
26342;DHT22;14054;50.108;8.640;2023-07-20T12:26:24;26.00;89.40
26342;DHT22;14054;50.108;8.640;2023-07-20T12:28:50;25.90;88.60
26342;DHT22;14054;50.108;8.640;2023-07-20T12:31:16;25.70;88.40
26342;DHT22;14054;50.108;8.640;2023-07-20T12:33:41;25.30;87.50
26342;DHT22;14054;50.108;8.640;2023-07-20T12:36:08;25.20;89.80
26342;DHT22;14054;50.108;8.640;2023-07-20T12:38:34;25.20;89.40
26342;DHT22;14054;50.108;8.640;2023-07-20T12:41:03;25.10;90.00
26342;DHT22;14054;50.108;8.640;2023-07-20T12:43:29;25.60;88.50
26342;DHT22;14054;50.108;8.640;2023-07-20T12:45:55;25.40;88.00
26342;DHT22;14054;50.108;8.640;2023-07-20T12:48:21;25.40;88.30
26342;DHT22;14054;50.108;8.640;2023-07-20T12:50:47;26.30;87.80
26342;DHT22;14054;50.108;8.640;2023-07-20T12:53:12;27.90;82.20
26342;DHT22;14054;50.108;8.640;2023-07-20T12:55:38;28.80;78.00
26342;DHT22;14054;50.108;8.640;2023-07-20T12:58:04;28.80;75.80
26342;DHT22;14054;50.108;8.640;2023-07-20T13:00:30;29.40;72.80
26342;DHT22;14054;50.108;8.640;2023-07-20T13:02:56;30.40;71.90
26342;DHT22;14054;50.108;8.640;2023-07-20T13:05:21;31.30;68.00
26342;DHT22;14054;50.108;8.640;2023-07-20T13:07:46;31.50;62.60
26342;DHT22;14054;50.108;8.640;2023-07-20T13:10:12;30.60;63.10
26342;DHT22;14054;50.108;8.640;2023-07-20T13:12:38;30.60;63.10
26342;DHT22;14054;50.108;8.640;2023-07-20T13:15:05;31.10;60.70
26342;DHT22;14054;50.108;8.640;2023-07-20T13:17:32;30.20;60.80
26342;DHT22;14054;50.108;8.640;2023-07-20T13:19:58;30.20;61.90
26342;DHT22;14054;50.108;8.640;2023-07-20T13:22:24;30.40;61.10
26342;DHT22;14054;50.108;8.640;2023-07-20T13:24:49;30.60;60.90
26342;DHT22;14054;50.108;8.640;2023-07-20T13:27:16;31.70;58.40
26342;DHT22;14054;50.108;8.640;2023-07-20T13:29:41;31.60;58.50
26342;DHT22;14054;50.108;8.640;2023-07-20T13:32:07;31.20;57.30
26342;DHT22;14054;50.108;8.640;2023-07-20T13:34:33;32.10;55.40
26342;DHT22;14054;50.108;8.640;2023-07-20T13:36:59;33.20;53.30
26342;DHT22;14054;50.108;8.640;2023-07-20T13:39:25;33.10;51.40
26342;DHT22;14054;50.108;8.640;2023-07-20T13:41:52;31.50;53.00
26342;DHT22;14054;50.108;8.640;2023-07-20T13:44:17;30.30;54.40
26342;DHT22;14054;50.108;8.640;2023-07-20T13:46:43;29.80;56.50
26342;DHT22;14054;50.108;8.640;2023-07-20T13:49:08;28.60;58.40
26342;DHT22;14054;50.108;8.640;2023-07-20T13:51:34;27.50;61.40
26342;DHT22;14054;50.108;8.640;2023-07-20T13:54:00;27.70;61.50
26342;DHT22;14054;50.108;8.640;2023-07-20T13:56:26;27.90;60.70
26342;DHT22;14054;50.108;8.640;2023-07-20T13:58:52;28.10;61.10
26342;DHT22;14054;50.108;8.640;2023-07-20T14:01:18;28.40;58.90
26342;DHT22;14054;50.108;8.640;2023-07-20T14:03:43;29.80;58.30
26342;DHT22;14054;50.108;8.640;2023-07-20T14:06:09;30.80;57.10
26342;DHT22;14054;50.108;8.640;2023-07-20T14:08:34;31.80;55.20
26342;DHT22;14054;50.108;8.640;2023-07-20T14:11:00;32.00;51.60
26342;DHT22;14054;50.108;8.640;2023-07-20T14:13:26;31.20;51.70
26342;DHT22;14054;50.108;8.640;2023-07-20T14:15:51;30.30;51.10
26342;DHT22;14054;50.108;8.640;2023-07-20T14:18:17;29.40;51.80
26342;DHT22;14054;50.108;8.640;2023-07-20T14:20:42;28.90;52.20
26342;DHT22;14054;50.108;8.640;2023-07-20T14:23:09;28.00;53.80
26342;DHT22;14054;50.108;8.640;2023-07-20T14:25:35;27.40;56.00
26342;DHT22;14054;50.108;8.640;2023-07-20T14:28:01;27.40;56.70
26342;DHT22;14054;50.108;8.640;2023-07-20T14:30:26;27.30;57.10
26342;DHT22;14054;50.108;8.640;2023-07-20T14:32:52;27.30;57.50
26342;DHT22;14054;50.108;8.640;2023-07-20T14:35:18;27.20;58.10
26342;DHT22;14054;50.108;8.640;2023-07-20T14:37:43;27.20;57.90
26342;DHT22;14054;50.108;8.640;2023-07-20T14:40:12;27.10;58.20
26342;DHT22;14054;50.108;8.640;2023-07-20T14:42:38;26.90;58.20
26342;DHT22;14054;50.108;8.640;2023-07-20T14:45:04;26.70;59.20
26342;DHT22;14054;50.108;8.640;2023-07-20T14:47:31;26.70;59.70
26342;DHT22;14054;50.108;8.640;2023-07-20T14:50:00;26.80;59.30
26342;DHT22;14054;50.108;8.640;2023-07-20T14:52:27;26.60;60.00
26342;DHT22;14054;50.108;8.640;2023-07-20T14:54:53;26.60;60.30
26342;DHT22;14054;50.108;8.640;2023-07-20T14:57:19;26.70;59.70
26342;DHT22;14054;50.108;8.640;2023-07-20T14:59:47;26.60;59.70
26342;DHT22;14054;50.108;8.640;2023-07-20T15:02:12;26.40;59.50
26342;DHT22;14054;50.108;8.640;2023-07-20T15:04:48;26.20;60.00
26342;DHT22;14054;50.108;8.640;2023-07-20T15:07:17;26.00;61.00
26342;DHT22;14054;50.108;8.640;2023-07-20T15:09:44;26.00;61.00
26342;DHT22;14054;50.108;8.640;2023-07-20T15:12:09;26.00;61.30
26342;DHT22;14054;50.108;8.640;2023-07-20T15:14:35;26.00;60.50
26342;DHT22;14054;50.108;8.640;2023-07-20T15:17:00;25.90;60.80
26342;DHT22;14054;50.108;8.640;2023-07-20T15:19:26;25.80;61.00
26342;DHT22;14054;50.108;8.640;2023-07-20T15:21:51;25.80;61.80
26342;DHT22;14054;50.108;8.640;2023-07-20T15:24:17;25.70;62.70
26342;DHT22;14054;50.108;8.640;2023-07-20T15:26:42;25.60;62.40
26342;DHT22;14054;50.108;8.640;2023-07-20T15:29:08;25.40;62.30
26342;DHT22;14054;50.108;8.640;2023-07-20T15:31:33;25.30;62.50
26342;DHT22;14054;50.108;8.640;2023-07-20T15:34:01;25.30;63.30
26342;DHT22;14054;50.108;8.640;2023-07-20T15:36:26;25.20;63.40
26342;DHT22;14054;50.108;8.640;2023-07-20T15:38:52;25.20;62.90
26342;DHT22;14054;50.108;8.640;2023-07-20T15:41:17;25.20;63.20
26342;DHT22;14054;50.108;8.640;2023-07-20T15:43:43;25.10;63.30